Bessemer, Alabama
Current Conditions -  °F | °C
As of 9:53 AM on Wednesday 26 Nov 2014 (Local Time) from KBHM Reporting Station
Clear Clear  
Wind Chill: 47°   Ceiling: Unl
Heat Index: 47°   Visibility: 10mi
Dew Point: 27°   Wind: 0mph
Humidity: 46%   Direction: NA
Pressure: 30.2"   Gusts: NA
Location:  33.4°N, 86.95°W
Report Text: KBHM 261553Z 00000KT 10SM CLR 08/M03 A3020 RMK AO2 SLP228 T00831028
Loading
Personal Weather Stations






























Interactive Weather Map New forecast layout! Learn more

10-Day Weather Forecast

Advertisements
Track Severe Weather on mobile